Time;durP1;ratioP1;P1;durP2;ratioP2;P2;SDS_P1;SDS_P2;PMS_P1;PMS_P2;Temp;Humidity;BMP_temperature;BMP_pressure;BME280_temperature;BME280_humidity;BME280_pressure;Samples;Min_cycle;Max_cycle;Signal;HPM_P1;HPM_P2
2022/07/08 00:00:35;;;;;;;4.72;0.80;;;15.10;99.80;;;;;;4216440;28;20554;-90
2022/07/08 00:02:36;;;;;;;9.55;0.80;;;15.10;99.90;;;;;;4171236;28;20052;-90
2022/07/08 00:04:38;;;;;;;4.75;1.02;;;15.10;99.80;;;;;;4183977;28;20452;-90
2022/07/08 00:06:38;;;;;;;4.95;0.90;;;15.10;99.80;;;;;;4184630;28;20045;-90
2022/07/08 00:08:39;;;;;;;4.35;0.88;;;15.00;99.70;;;;;;4173839;28;20562;-90
2022/07/08 00:10:40;;;;;;;8.10;1.85;;;14.90;99.70;;;;;;4168382;28;20048;-90
2022/07/08 00:12:41;;;;;;;4.20;0.85;;;15.00;99.80;;;;;;4183443;28;20451;-90
2022/07/08 00:14:42;;;;;;;5.75;0.80;;;15.00;99.90;;;;;;4175925;28;20417;-90
2022/07/08 00:16:44;;;;;;;6.47;0.70;;;15.00;99.80;;;;;;4192370;28;20083;-89
2022/07/08 00:18:44;;;;;;;6.85;1.00;;;15.00;99.80;;;;;;4166306;28;20103;-90
2022/07/08 00:20:45;;;;;;;8.73;1.70;;;14.90;99.70;;;;;;4204837;28;20435;-90
2022/07/08 00:22:46;;;;;;;3.67;1.00;;;14.90;99.80;;;;;;4165932;28;20049;-89
2022/07/08 00:24:47;;;;;;;9.90;2.72;;;14.90;99.80;;;;;;4181691;28;20844;-90
2022/07/08 00:26:48;;;;;;;11.18;1.27;;;14.90;99.90;;;;;;4210690;28;20507;-89
2022/07/08 00:28:50;;;;;;;6.63;0.65;;;14.90;99.90;;;;;;4210221;28;20044;-90
2022/07/08 00:30:51;;;;;;;6.40;1.00;;;14.80;99.90;;;;;;4179969;28;20432;-90
2022/07/08 00:32:52;;;;;;;11.07;1.00;;;14.80;99.90;;;;;;4211858;28;20052;-90
2022/07/08 00:34:55;;;;;;;8.30;1.80;;;14.80;99.90;;;;;;4195114;28;20049;-89
2022/07/08 00:36:56;;;;;;;6.38;0.70;;;14.80;99.90;;;;;;4212118;28;20413;-90
2022/07/08 00:38:57;;;;;;;3.63;0.98;;;14.80;99.90;;;;;;4194669;28;20056;-90
2022/07/08 00:40:59;;;;;;;9.45;1.30;;;14.80;99.90;;;;;;4200041;28;20527;-90
2022/07/08 00:42:59;;;;;;;8.80;1.30;;;14.80;99.90;;;;;;4171452;28;20082;-90
2022/07/08 00:45:00;;;;;;;8.73;0.98;;;14.70;99.90;;;;;;4169875;28;20049;-89
2022/07/08 00:47:01;;;;;;;5.32;1.30;;;14.70;99.90;;;;;;4182783;28;20159;-90
2022/07/08 00:49:02;;;;;;;8.43;1.73;;;14.70;99.90;;;;;;4190653;28;20061;-90
2022/07/08 00:51:08;;;;;;;6.93;1.33;;;14.70;99.90;;;;;;4169410;28;20064;-90
2022/07/08 00:53:09;;;;;;;7.70;0.93;;;14.70;99.90;;;;;;4177640;28;20127;-90
2022/07/08 00:55:11;;;;;;;6.38;1.20;;;14.70;99.90;;;;;;4200078;28;20048;-90
2022/07/08 00:57:14;;;;;;;10.70;1.02;;;14.70;99.90;;;;;;4202938;28;20488;-90
2022/07/08 00:59:15;;;;;;;6.97;1.00;;;14.70;99.90;;;;;;4169892;28;20096;-89
2022/07/08 01:01:21;;;;;;;8.00;1.35;;;14.70;99.90;;;;;;4200182;28;20045;-90
2022/07/08 01:03:22;;;;;;;9.35;1.20;;;14.60;99.90;;;;;;4184638;28;20045;-90
2022/07/08 01:05:23;;;;;;;11.85;1.55;;;14.60;99.90;;;;;;4180077;28;20045;-90
2022/07/08 01:07:25;;;;;;;6.28;1.02;;;14.60;99.90;;;;;;4211419;28;20076;-91
2022/07/08 01:09:27;;;;;;;7.13;1.13;;;14.50;99.90;;;;;;4216548;28;20075;-89
2022/07/08 01:11:28;;;;;;;6.40;1.08;;;14.50;99.90;;;;;;4181360;28;20045;-90
2022/07/08 01:13:29;;;;;;;10.77;1.15;;;14.40;99.90;;;;;;4203301;28;20046;-90
2022/07/08 01:15:30;;;;;;;9.55;1.85;;;14.50;99.90;;;;;;4171951;28;20518;-91
2022/07/08 01:17:40;;;;;;;7.00;1.13;;;14.50;99.90;;;;;;4174987;28;20058;-90
2022/07/08 01:19:41;;;;;;;5.85;1.00;;;14.50;99.90;;;;;;4186701;28;20052;-90
2022/07/08 01:21:44;;;;;;;7.22;0.98;;;14.50;99.90;;;;;;4234037;28;20040;-91
2022/07/08 01:23:45;;;;;;;6.93;0.82;;;14.40;99.90;;;;;;4172193;28;20210;-91
2022/07/08 01:25:47;;;;;;;6.10;1.23;;;14.40;99.90;;;;;;4216650;28;20040;-91
2022/07/08 01:27:47;;;;;;;10.45;1.20;;;14.40;99.90;;;;;;4183237;28;20029;-91
2022/07/08 01:29:49;;;;;;;8.95;1.38;;;14.40;99.90;;;;;;4183861;28;20071;-91
2022/07/08 01:31:53;;;;;;;12.60;1.42;;;14.40;99.90;;;;;;4186841;28;20044;-91
2022/07/08 01:33:55;;;;;;;7.70;1.00;;;14.30;99.90;;;;;;4168139;28;20055;-91
2022/07/08 01:35:56;;;;;;;7.20;1.20;;;14.30;99.90;;;;;;4200390;28;20044;-91
2022/07/08 01:37:57;;;;;;;5.50;1.67;;;14.30;99.90;;;;;;4182311;28;20103;-91
2022/07/08 01:39:57;;;;;;;7.03;0.98;;;14.20;99.90;;;;;;4211690;28;20045;-91
2022/07/08 01:41:59;;;;;;;8.77;1.48;;;14.20;99.90;;;;;;4182378;28;20044;-90
2022/07/08 01:44:01;;;;;;;9.32;1.27;;;14.00;99.90;;;;;;4180631;28;20037;-90
2022/07/08 01:46:02;;;;;;;4.47;1.10;;;14.10;99.90;;;;;;4183167;28;20040;-90
2022/07/08 01:48:03;;;;;;;13.68;1.05;;;14.10;99.90;;;;;;4182629;28;20049;-90
2022/07/08 01:50:04;;;;;;;5.93;0.70;;;14.00;99.90;;;;;;4184726;28;20053;-90
2022/07/08 01:52:08;;;;;;;11.80;1.45;;;14.00;99.90;;;;;;4169645;28;20429;-90
2022/07/08 01:54:08;;;;;;;10.65;1.45;;;14.00;99.90;;;;;;4195221;28;20088;-90
2022/07/08 01:56:09;;;;;;;7.88;1.98;;;14.00;99.90;;;;;;4184416;28;20452;-91
2022/07/08 01:58:10;;;;;;;6.35;1.38;;;14.00;99.90;;;;;;4181317;28;20504;-90
2022/07/08 02:00:11;;;;;;;6.07;1.10;;;13.90;99.90;;;;;;4200962;28;20072;-90
2022/07/08 02:02:14;;;;;;;8.48;1.65;;;13.90;99.90;;;;;;4198138;28;20404;-90
2022/07/08 02:04:15;;;;;;;5.55;1.20;;;13.80;99.90;;;;;;4188998;28;20037;-90
2022/07/08 02:06:16;;;;;;;5.38;0.90;;;13.80;99.90;;;;;;4193587;28;20044;-90
2022/07/08 02:08:19;;;;;;;7.00;1.20;;;13.80;99.90;;;;;;4174287;28;20464;-90
2022/07/08 02:10:19;;;;;;;6.22;1.13;;;13.70;99.90;;;;;;4174547;28;20041;-90
2022/07/08 02:12:20;;;;;;;8.73;1.40;;;13.70;99.90;;;;;;4188624;28;20045;-90
2022/07/08 02:14:21;;;;;;;10.93;1.42;;;13.70;99.90;;;;;;4173282;28;20033;-90
2022/07/08 02:16:24;;;;;;;9.23;1.02;;;13.70;99.90;;;;;;4213463;28;20051;-90
2022/07/08 02:18:24;;;;;;;7.90;1.25;;;13.60;99.90;;;;;;4173927;28;20084;-90
2022/07/08 02:20:26;;;;;;;5.28;1.13;;;13.70;99.90;;;;;;4166901;28;20413;-90
2022/07/08 02:22:27;;;;;;;6.60;1.10;;;13.60;99.90;;;;;;4183090;28;20049;-90
2022/07/08 02:24:30;;;;;;;10.45;1.52;;;13.60;99.90;;;;;;4202950;28;20055;-91
2022/07/08 02:26:31;;;;;;;7.82;1.17;;;13.60;99.90;;;;;;4217583;28;20482;-90
2022/07/08 02:28:32;;;;;;;9.52;0.90;;;13.60;99.90;;;;;;4172072;28;20099;-92
2022/07/08 02:30:32;;;;;;;10.35;1.42;;;13.60;99.90;;;;;;4216693;28;20544;-91
2022/07/08 02:32:34;;;;;;;5.72;0.82;;;13.50;99.90;;;;;;4195442;28;20088;-91
2022/07/08 02:34:35;;;;;;;5.63;1.45;;;13.50;99.90;;;;;;4214815;28;20075;-91
2022/07/08 02:36:38;;;;;;;17.67;1.77;;;13.50;99.90;;;;;;4171102;28;20108;-90
2022/07/08 02:38:40;;;;;;;17.17;2.05;;;13.50;99.90;;;;;;4210304;28;20045;-89
2022/07/08 02:40:46;;;;;;;6.63;1.40;;;13.40;99.90;;;;;;4234490;28;20035;-90
2022/07/08 02:42:48;;;;;;;5.25;1.00;;;13.40;99.90;;;;;;4192175;28;20492;-90
2022/07/08 02:44:52;;;;;;;7.18;0.95;;;13.40;99.90;;;;;;4204735;28;20052;-89
2022/07/08 02:46:53;;;;;;;9.00;1.55;;;13.20;99.90;;;;;;4171869;28;20386;-90
2022/07/08 02:48:54;;;;;;;7.60;1.35;;;13.30;99.90;;;;;;4214662;28;20059;-89
2022/07/08 02:50:55;;;;;;;6.20;1.10;;;13.20;99.90;;;;;;4194676;28;20497;-90
2022/07/08 02:52:57;;;;;;;10.95;1.15;;;13.20;99.90;;;;;;4179019;28;20045;-89
2022/07/08 02:55:00;;;;;;;4.78;0.80;;;13.20;99.90;;;;;;4181925;28;20501;-89
2022/07/08 02:57:01;;;;;;;5.28;1.20;;;13.20;99.90;;;;;;4176070;28;20052;-89
2022/07/08 02:59:03;;;;;;;6.55;1.10;;;13.10;99.90;;;;;;4178903;28;20037;-90
2022/07/08 03:01:04;;;;;;;5.93;1.00;;;13.10;99.90;;;;;;4186537;28;20036;-90
2022/07/08 03:03:06;;;;;;;6.15;1.13;;;13.10;99.90;;;;;;4209858;28;20039;-89
2022/07/08 03:05:07;;;;;;;8.15;1.77;;;13.10;99.90;;;;;;4198851;28;20036;-90
2022/07/08 03:07:08;;;;;;;3.83;0.88;;;13.10;99.90;;;;;;4169867;28;20044;-89
2022/07/08 03:09:10;;;;;;;11.10;1.35;;;13.10;99.90;;;;;;4204642;28;20527;-89
2022/07/08 03:11:11;;;;;;;8.70;1.20;;;13.10;99.90;;;;;;4176322;28;20049;-90
2022/07/08 03:13:11;;;;;;;7.80;1.40;;;13.10;99.90;;;;;;4194785;28;20083;-90
2022/07/08 03:15:12;;;;;;;6.10;1.58;;;13.00;99.90;;;;;;4180464;28;20045;-90
2022/07/08 03:17:13;;;;;;;7.60;1.50;;;13.00;99.90;;;;;;4168247;28;20094;-90
2022/07/08 03:19:16;;;;;;;8.52;1.40;;;13.20;99.90;;;;;;4167523;28;20045;-90
2022/07/08 03:21:18;;;;;;;12.13;2.13;;;12.90;99.90;;;;;;4176212;28;20129;-90
2022/07/08 03:23:18;;;;;;;9.48;1.27;;;12.90;99.90;;;;;;4181627;28;20493;-91
2022/07/08 03:25:19;;;;;;;7.80;1.40;;;12.90;99.90;;;;;;4209360;28;20036;-91
2022/07/08 03:27:21;;;;;;;4.55;1.48;;;12.90;99.90;;;;;;4171755;28;20080;-92
2022/07/08 03:29:22;;;;;;;7.75;1.50;;;12.90;99.90;;;;;;4202528;28;20040;-92
2022/07/08 03:31:23;;;;;;;10.07;1.90;;;13.00;99.90;;;;;;4178529;28;20054;-92
2022/07/08 03:33:25;;;;;;;4.72;1.05;;;12.80;99.90;;;;;;4214367;28;20562;-93
2022/07/08 03:35:27;;;;;;;7.22;1.17;;;12.80;99.90;;;;;;4176466;28;20413;-93
2022/07/08 03:37:29;;;;;;;8.85;2.42;;;12.80;99.90;;;;;;4181482;28;20480;-92
2022/07/08 03:39:30;;;;;;;7.65;1.30;;;12.80;99.90;;;;;;4179265;28;20045;-93
2022/07/08 03:41:33;;;;;;;8.98;0.90;;;12.80;99.90;;;;;;4179032;28;20080;-93
2022/07/08 03:43:34;;;;;;;3.17;0.98;;;12.80;99.90;;;;;;4181847;28;20045;-92
2022/07/08 03:45:36;;;;;;;9.85;1.23;;;12.80;99.90;;;;;;4212166;28;20057;-93
2022/07/08 03:47:37;;;;;;;9.00;1.73;;;12.80;99.90;;;;;;4204322;28;20139;-92
2022/07/08 03:49:39;;;;;;;7.32;1.50;;;12.80;99.90;;;;;;4166700;28;20042;-93
2022/07/08 03:51:43;;;;;;;9.82;1.30;;;12.80;99.90;;;;;;4204941;28;20142;-92
2022/07/08 03:53:44;;;;;;;7.18;2.00;;;12.80;99.90;;;;;;4208334;28;20135;-91
2022/07/08 03:55:46;;;;;;;11.25;2.08;;;12.80;99.90;;;;;;4174157;28;20087;-93
2022/07/08 03:57:47;;;;;;;13.55;1.50;;;12.80;99.90;;;;;;4184285;28;20045;-93
2022/07/08 03:59:48;;;;;;;7.22;1.25;;;12.80;99.90;;;;;;4184675;28;20079;-92
2022/07/08 04:01:49;;;;;;;11.57;1.83;;;12.80;99.90;;;;;;4186822;28;20044;-92
2022/07/08 04:03:50;;;;;;;12.10;2.50;;;12.80;99.90;;;;;;4177479;28;20136;-93
2022/07/08 04:05:57;;;;;;;6.32;1.77;;;12.90;99.90;;;;;;4183292;28;20045;-93
2022/07/08 04:07:57;;;;;;;4.10;1.50;;;12.90;99.90;;;;;;4183871;28;20048;-93
2022/07/08 04:09:58;;;;;;;27.50;2.58;;;12.90;99.90;;;;;;4200647;28;20385;-92
2022/07/08 04:11:59;;;;;;;10.55;1.23;;;12.90;99.90;;;;;;4171127;28;20563;-93
2022/07/08 04:14:00;;;;;;;8.85;1.50;;;12.90;99.90;;;;;;4209358;28;20040;-91
2022/07/08 04:16:02;;;;;;;11.07;1.98;;;12.90;99.90;;;;;;4167172;28;20128;-92
2022/07/08 04:18:03;;;;;;;10.32;1.42;;;13.00;99.90;;;;;;4173696;28;20596;-93
2022/07/08 04:20:05;;;;;;;9.27;1.63;;;13.00;99.90;;;;;;4172712;28;20046;-92
2022/07/08 04:22:06;;;;;;;9.55;1.40;;;13.00;99.90;;;;;;4198859;28;20131;-92
2022/07/08 04:24:07;;;;;;;8.48;2.28;;;13.00;99.90;;;;;;4165652;28;20489;-93
2022/07/08 04:26:08;;;;;;;8.90;1.10;;;13.10;99.90;;;;;;4180372;28;20080;-93
2022/07/08 04:28:09;;;;;;;7.20;2.30;;;13.10;99.90;;;;;;4183255;28;20099;-92
2022/07/08 04:30:16;;;;;;;9.32;1.58;;;13.20;99.90;;;;;;4183973;28;20052;-92
2022/07/08 04:32:16;;;;;;;9.05;1.77;;;13.20;99.90;;;;;;4183006;28;20488;-92
2022/07/08 04:34:17;;;;;;;7.63;1.42;;;13.20;99.90;;;;;;4183037;28;20048;-92
2022/07/08 04:36:18;;;;;;;5.43;1.48;;;13.30;99.90;;;;;;4182489;28;20044;-91
2022/07/08 04:38:19;;;;;;;9.00;1.63;;;13.30;99.90;;;;;;4167486;28;20087;-92
2022/07/08 04:40:20;;;;;;;6.85;1.40;;;13.40;99.90;;;;;;4186726;28;20092;-93
2022/07/08 04:42:22;;;;;;;9.00;1.42;;;13.50;99.90;;;;;;4167025;28;20041;-92
2022/07/08 04:44:22;;;;;;;9.27;1.00;;;13.50;99.90;;;;;;4166064;28;20049;-92
2022/07/08 04:46:25;;;;;;;7.53;1.63;;;13.60;99.90;;;;;;4182025;28;20048;-93
2022/07/08 04:48:29;;;;;;;7.38;1.30;;;13.60;99.90;;;;;;4167325;28;20053;-93
2022/07/08 04:50:31;;;;;;;7.38;1.38;;;13.70;99.90;;;;;;4182390;28;20665;-93
2022/07/08 04:52:32;;;;;;;16.25;2.83;;;13.70;99.90;;;;;;4181654;28;20041;-93
2022/07/08 04:54:34;;;;;;;5.68;1.17;;;13.80;99.90;;;;;;4216231;28;20518;-93
2022/07/08 04:56:35;;;;;;;10.32;1.85;;;13.80;99.90;;;;;;4183079;28;20060;-93
2022/07/08 04:58:35;;;;;;;8.63;1.63;;;13.90;99.90;;;;;;4216365;28;20069;-92
2022/07/08 05:00:37;;;;;;;7.95;1.20;;;14.00;99.90;;;;;;4181066;28;20041;-92
2022/07/08 05:02:38;;;;;;;7.57;1.38;;;14.00;99.90;;;;;;4181383;28;20049;-93
2022/07/08 05:04:41;;;;;;;10.93;1.60;;;14.00;99.90;;;;;;4181332;28;20048;-93
2022/07/08 05:06:42;;;;;;;7.80;1.88;;;14.10;99.90;;;;;;4182173;28;20107;-93
2022/07/08 05:08:43;;;;;;;8.98;2.58;;;14.20;99.90;;;;;;4215130;28;20044;-93
2022/07/08 05:10:44;;;;;;;11.85;1.50;;;14.20;99.90;;;;;;4182160;28;20163;-93
2022/07/08 05:12:54;;;;;;;7.68;1.70;;;14.30;99.90;;;;;;4190676;28;20052;-93
2022/07/08 05:14:55;;;;;;;13.63;2.83;;;14.40;99.90;;;;;;4198564;28;20088;-93
2022/07/08 05:16:58;;;;;;;8.35;1.42;;;14.40;99.90;;;;;;4203967;28;20043;-91
2022/07/08 05:19:00;;;;;;;8.43;2.28;;;14.40;99.90;;;;;;4195171;28;20100;-92
2022/07/08 05:21:04;;;;;;;10.68;2.03;;;14.50;99.90;;;;;;4195196;28;20028;-92
2022/07/08 05:23:05;;;;;;;7.70;1.77;;;14.60;99.90;;;;;;4201307;28;20033;-92
2022/07/08 05:25:07;;;;;;;14.25;2.80;;;14.60;99.90;;;;;;4191784;28;20043;-93
2022/07/08 05:27:08;;;;;;;8.70;1.92;;;14.60;99.90;;;;;;4186609;28;20037;-92
2022/07/08 05:29:09;;;;;;;8.38;1.50;;;14.60;99.90;;;;;;4186446;28;20080;-92
2022/07/08 05:31:11;;;;;;;8.13;2.25;;;14.60;99.90;;;;;;4184774;28;20044;-93
2022/07/08 05:33:12;;;;;;;6.60;1.20;;;14.70;99.90;;;;;;4185514;28;20124;-93
2022/07/08 05:35:14;;;;;;;12.15;2.35;;;14.70;99.90;;;;;;4186896;28;20056;-94
2022/07/08 05:37:15;;;;;;;10.57;1.95;;;14.70;99.90;;;;;;4185735;28;20429;-92
2022/07/08 05:39:21;;;;;;;9.23;1.40;;;14.80;99.90;;;;;;4187641;28;20117;-91
2022/07/08 05:41:28;;;;;;;8.75;1.80;;;14.90;99.90;;;;;;4185623;28;20033;-90
2022/07/08 05:43:31;;;;;;;8.15;1.38;;;14.90;99.90;;;;;;4203957;28;20055;-93
2022/07/08 05:45:33;;;;;;;7.85;1.80;;;15.00;99.90;;;;;;4186764;28;20045;-89
2022/07/08 05:47:34;;;;;;;8.57;1.35;;;15.00;99.90;;;;;;4177714;28;20413;-91
2022/07/08 05:49:36;;;;;;;11.63;2.40;;;15.10;99.90;;;;;;4218544;28;20048;-91
2022/07/08 05:51:43;;;;;;;9.00;2.00;;;15.20;99.90;;;;;;4185757;28;20045;-91
2022/07/08 05:53:44;;;;;;;5.82;1.90;;;15.30;99.90;;;;;;4203931;28;20051;-91
2022/07/08 05:55:46;;;;;;;9.73;2.13;;;15.30;99.90;;;;;;4189808;28;20509;-91
2022/07/08 05:57:48;;;;;;;13.13;1.58;;;15.30;99.90;;;;;;4190247;28;20512;-94
2022/07/08 05:59:50;;;;;;;7.80;1.73;;;15.40;99.90;;;;;;4189177;28;20049;-91
2022/07/08 06:01:59;;;;;;;10.45;2.15;;;15.60;99.90;;;;;;4189358;28;20056;-90
2022/07/08 06:04:00;;;;;;;12.15;1.40;;;15.60;99.90;;;;;;4188885;28;20449;-90
2022/07/08 06:06:01;;;;;;;9.43;1.48;;;15.80;99.90;;;;;;4187283;28;20113;-89
2022/07/08 06:08:02;;;;;;;7.28;1.40;;;15.80;99.90;;;;;;4223305;28;20104;-89
2022/07/08 06:10:04;;;;;;;7.28;1.13;;;15.90;99.90;;;;;;4231428;28;20048;-89
2022/07/08 06:12:06;;;;;;;12.77;3.13;;;15.90;99.90;;;;;;4192658;28;20102;-90
2022/07/08 06:14:06;;;;;;;9.27;1.85;;;15.90;99.90;;;;;;4196009;28;20053;-89
2022/07/08 06:16:11;;;;;;;7.38;1.40;;;16.00;99.90;;;;;;4215064;28;20037;-89
2022/07/08 06:18:16;;;;;;;15.65;1.90;;;16.10;99.90;;;;;;4189100;28;20094;-90
2022/07/08 06:20:18;;;;;;;11.82;2.40;;;16.20;99.90;;;;;;4188722;28;20041;-90
2022/07/08 06:22:19;;;;;;;7.65;1.95;;;16.20;99.90;;;;;;4187478;28;20053;-89
2022/07/08 06:24:21;;;;;;;14.90;2.10;;;16.20;99.90;;;;;;4188283;28;20049;-90
2022/07/08 06:26:29;;;;;;;6.40;1.20;;;16.30;99.90;;;;;;4206284;28;20500;-91
2022/07/08 06:28:30;;;;;;;12.15;1.98;;;16.40;99.90;;;;;;4188189;28;20523;-91
2022/07/08 06:30:38;;;;;;;9.95;1.65;;;16.50;99.90;;;;;;4187609;28;20044;-88
2022/07/08 06:32:46;;;;;;;9.60;1.75;;;16.50;99.90;;;;;;4178737;28;20057;-89
2022/07/08 06:34:53;;;;;;;9.25;1.35;;;16.60;99.90;;;;;;4188357;28;20086;-91
2022/07/08 06:36:55;;;;;;;10.63;1.33;;;16.70;99.90;;;;;;4198536;28;20044;-91
2022/07/08 06:39:11;;;;;;;8.52;1.50;;;16.70;99.90;;;;;;4188989;28;20041;-91
2022/07/08 06:41:12;;;;;;;5.15;1.23;;;16.90;99.90;;;;;;4201021;28;20053;-91
2022/07/08 06:43:14;;;;;;;6.78;0.95;;;16.90;99.90;;;;;;4183258;28;20063;-91
2022/07/08 06:45:32;;;;;;;7.05;1.45;;;17.00;99.90;;;;;;4185173;28;20575;-93
2022/07/08 06:47:32;;;;;;;8.70;1.33;;;17.00;99.90;;;;;;4183857;28;20071;-91
2022/07/08 06:49:33;;;;;;;7.95;1.33;;;17.10;99.90;;;;;;4184490;28;20049;-89
2022/07/08 06:51:34;;;;;;;10.02;1.73;;;17.10;99.90;;;;;;4182511;28;20120;-89
2022/07/08 06:55:56;;;;;;;5.00;1.10;;;17.20;99.90;;;;;;4197867;28;20052;-91
2022/07/08 06:57:58;;;;;;;7.32;1.10;;;17.30;99.90;;;;;;4175685;28;20095;-89
2022/07/08 07:00:06;;;;;;;10.13;1.92;;;17.30;99.90;;;;;;4207538;28;20109;-92
2022/07/08 07:02:08;;;;;;;6.70;1.20;;;17.30;99.90;;;;;;4175255;28;20577;-90
2022/07/08 07:04:11;;;;;;;5.03;0.98;;;17.40;99.90;;;;;;4191552;28;20100;-89
2022/07/08 07:06:13;;;;;;;5.90;1.10;;;17.50;99.90;;;;;;4229576;28;20448;-93
2022/07/08 07:08:15;;;;;;;5.15;1.40;;;17.50;99.90;;;;;;4189287;28;20052;-92
2022/07/08 07:10:15;;;;;;;13.57;1.40;;;17.60;99.90;;;;;;4185717;28;20053;-90
2022/07/08 07:12:18;;;;;;;6.82;1.88;;;17.70;99.90;;;;;;4186164;28;20115;-90
2022/07/08 07:14:19;;;;;;;3.33;0.90;;;17.70;99.90;;;;;;4204386;28;20467;-91
2022/07/08 07:16:22;;;;;;;8.65;1.00;;;17.70;99.90;;;;;;4165608;28;20045;-91
2022/07/08 07:18:23;;;;;;;11.07;1.40;;;17.80;99.90;;;;;;4182178;28;20057;-90
2022/07/08 07:20:24;;;;;;;14.25;1.95;;;17.80;99.90;;;;;;4190822;28;20080;-90
2022/07/08 07:22:25;;;;;;;6.53;1.10;;;17.90;99.90;;;;;;4171460;28;20045;-90
2022/07/08 07:24:27;;;;;;;9.68;1.30;;;17.90;99.90;;;;;;4198354;28;20432;-90
2022/07/08 07:26:28;;;;;;;7.25;1.08;;;18.00;99.90;;;;;;4185152;28;20045;-90
2022/07/08 07:28:31;;;;;;;10.70;1.40;;;18.30;99.90;;;;;;4206900;28;20538;-90
2022/07/08 07:30:31;;;;;;;4.13;1.33;;;18.00;99.90;;;;;;4172255;28;20042;-91
2022/07/08 07:32:32;;;;;;;9.40;1.17;;;18.00;99.90;;;;;;4212770;28;20055;-91
2022/07/08 07:34:35;;;;;;;13.27;1.73;;;18.10;99.90;;;;;;4183411;28;20065;-90
2022/07/08 07:36:36;;;;;;;11.18;1.17;;;18.10;99.90;;;;;;4182057;28;20052;-91
2022/07/08 07:38:42;;;;;;;5.88;0.85;;;18.10;99.90;;;;;;4177526;28;20107;-90
2022/07/08 07:40:43;;;;;;;5.18;0.77;;;18.10;99.90;;;;;;4181888;28;20072;-91
2022/07/08 07:42:45;;;;;;;6.90;1.02;;;18.10;99.90;;;;;;4168071;28;20049;-90
2022/07/08 07:44:46;;;;;;;2.33;1.00;;;18.10;99.90;;;;;;4212564;28;20127;-89
2022/07/08 07:46:47;;;;;;;4.07;1.33;;;18.10;99.90;;;;;;4196005;28;20052;-89
2022/07/08 07:48:52;;;;;;;11.07;1.40;;;18.00;99.90;;;;;;4208781;28;20131;-90
2022/07/08 07:50:53;;;;;;;3.20;0.80;;;18.10;99.90;;;;;;4170481;28;20065;-89
2022/07/08 07:52:55;;;;;;;6.95;1.10;;;18.10;99.90;;;;;;4192464;28;20505;-90
2022/07/08 07:55:03;;;;;;;10.07;1.55;;;18.10;99.90;;;;;;4189725;28;20413;-89
2022/07/08 07:57:04;;;;;;;4.18;1.88;;;18.10;99.90;;;;;;4216136;28;20040;-89
2022/07/08 07:59:05;;;;;;;6.07;1.10;;;18.10;99.90;;;;;;4184735;28;20060;-89
2022/07/08 08:01:07;;;;;;;4.05;1.05;;;18.10;99.90;;;;;;4184517;28;20049;-89
2022/07/08 08:03:08;;;;;;;7.72;1.80;;;18.10;99.90;;;;;;4209926;28;20617;-89
2022/07/08 08:05:10;;;;;;;3.95;1.00;;;18.20;99.90;;;;;;4193141;28;20032;-88
2022/07/08 08:07:11;;;;;;;8.55;1.02;;;18.20;99.90;;;;;;4201793;28;20037;-89
2022/07/08 08:09:14;;;;;;;4.93;1.00;;;18.20;99.90;;;;;;4194437;28;20036;-89
2022/07/08 08:11:15;;;;;;;5.30;1.17;;;18.20;99.90;;;;;;4189717;28;20044;-90
2022/07/08 08:13:16;;;;;;;7.13;1.00;;;18.30;99.90;;;;;;4209291;28;20044;-89
2022/07/08 08:15:22;;;;;;;7.10;1.15;;;18.30;99.90;;;;;;4187583;28;20450;-89
2022/07/08 08:17:23;;;;;;;7.15;1.20;;;18.30;99.90;;;;;;4198151;28;20123;-90
2022/07/08 08:19:24;;;;;;;7.15;1.30;;;18.30;99.90;;;;;;4167555;28;20045;-91
2022/07/08 08:21:25;;;;;;;8.77;1.75;;;18.30;99.90;;;;;;4182354;28;20128;-91
2022/07/08 08:23:25;;;;;;;4.00;1.30;;;18.40;99.90;;;;;;4216526;28;20507;-89
2022/07/08 08:25:26;;;;;;;11.05;1.45;;;18.40;99.90;;;;;;4191647;28;20520;-90
2022/07/08 08:27:28;;;;;;;8.52;2.10;;;18.40;99.90;;;;;;4186505;28;20084;-90
2022/07/08 08:29:29;;;;;;;6.18;1.17;;;18.40;99.90;;;;;;4208358;28;20050;-90
2022/07/08 08:31:31;;;;;;;3.78;0.95;;;18.40;99.90;;;;;;4185714;28;20138;-91
2022/07/08 08:33:34;;;;;;;8.32;2.13;;;18.50;99.90;;;;;;4210946;28;20044;-90
2022/07/08 08:35:35;;;;;;;6.82;1.58;;;18.50;99.90;;;;;;4186686;28;20049;-91
2022/07/08 08:37:37;;;;;;;6.72;1.27;;;18.50;99.90;;;;;;4181072;28;20052;-91
2022/07/08 08:39:41;;;;;;;5.90;1.20;;;18.60;99.90;;;;;;4171312;28;20046;-91
2022/07/08 08:41:43;;;;;;;6.80;1.52;;;18.50;99.90;;;;;;4209237;28;20051;-89
2022/07/08 08:43:44;;;;;;;8.80;1.75;;;18.50;99.90;;;;;;4172306;28;20112;-90
2022/07/08 08:45:46;;;;;;;4.57;0.98;;;18.50;99.90;;;;;;4180264;28;20041;-89
2022/07/08 08:47:48;;;;;;;4.05;1.02;;;18.50;99.90;;;;;;4190157;28;20049;-89
2022/07/08 08:49:49;;;;;;;8.98;1.45;;;18.50;99.90;;;;;;4218342;28;20072;-89
2022/07/08 08:51:53;;;;;;;7.65;1.30;;;18.50;99.90;;;;;;4197608;28;20108;-90
2022/07/08 08:53:56;;;;;;;7.13;1.35;;;18.50;99.90;;;;;;4165480;28;20128;-89
2022/07/08 08:55:59;;;;;;;24.67;2.70;;;18.50;99.90;;;;;;4197602;28;20134;-90
2022/07/08 08:58:02;;;;;;;6.97;1.30;;;18.60;99.90;;;;;;4186106;28;20049;-90
2022/07/08 09:00:03;;;;;;;8.15;1.90;;;18.70;99.90;;;;;;4199218;28;20443;-90
2022/07/08 09:02:04;;;;;;;4.20;1.20;;;18.70;99.90;;;;;;4195770;28;20124;-90
2022/07/08 09:04:10;;;;;;;5.72;1.73;;;18.80;99.90;;;;;;4189290;28;20052;-90
2022/07/08 09:06:12;;;;;;;5.35;1.00;;;18.90;99.90;;;;;;4216713;28;20059;-92
2022/07/08 09:08:13;;;;;;;6.78;1.40;;;19.00;99.90;;;;;;4211671;28;20471;-93
2022/07/08 09:10:20;;;;;;;10.60;1.85;;;19.20;99.90;;;;;;4196861;28;20052;-91
2022/07/08 09:12:23;;;;;;;7.05;1.30;;;19.30;99.90;;;;;;4230809;28;20051;-90
2022/07/08 09:14:24;;;;;;;9.57;1.23;;;19.30;99.90;;;;;;4185082;28;20055;-91
2022/07/08 09:16:25;;;;;;;6.88;1.48;;;19.40;99.90;;;;;;4220139;28;20408;-90
2022/07/08 09:18:38;;;;;;;6.60;1.05;;;19.50;99.90;;;;;;4176292;28;20052;-90
2022/07/08 09:20:39;;;;;;;6.32;1.13;;;19.60;99.90;;;;;;4187238;28;20052;-91
2022/07/08 09:22:46;;;;;;;10.90;1.73;;;19.60;99.90;;;;;;4203040;28;20104;-90
2022/07/08 09:24:47;;;;;;;13.32;1.73;;;19.70;99.90;;;;;;4181209;28;20056;-90
2022/07/08 09:26:48;;;;;;;7.05;1.35;;;19.80;99.90;;;;;;4180960;28;20452;-90
2022/07/08 09:28:50;;;;;;;6.72;1.30;;;19.80;99.90;;;;;;4181754;28;20038;-90
2022/07/08 09:30:54;;;;;;;5.95;1.08;;;19.90;99.90;;;;;;4212713;28;20090;-90
2022/07/08 09:33:00;;;;;;;8.20;1.70;;;19.90;99.90;;;;;;4170067;28;20071;-88
2022/07/08 09:35:14;;;;;;;6.10;1.60;;;19.90;99.90;;;;;;4182899;28;20528;-90
2022/07/08 09:37:17;;;;;;;9.52;1.60;;;19.90;99.90;;;;;;4184891;28;20146;-89
2022/07/08 09:39:28;;;;;;;5.47;1.10;;;20.00;99.90;;;;;;4184765;28;20045;-90
2022/07/08 09:41:29;;;;;;;7.65;1.10;;;20.00;99.90;;;;;;4184129;28;20045;-89
2022/07/08 09:43:31;;;;;;;5.18;1.20;;;20.00;99.90;;;;;;4199773;28;20455;-90
2022/07/08 09:45:34;;;;;;;8.45;1.10;;;20.10;99.70;;;;;;4178079;28;20037;-89
2022/07/08 09:47:35;;;;;;;4.85;1.10;;;20.10;99.60;;;;;;4206259;28;20044;-89
2022/07/08 09:49:43;;;;;;;2.45;0.93;;;20.30;99.40;;;;;;4190600;28;20130;-89
2022/07/08 09:51:48;;;;;;;4.97;1.08;;;20.30;99.10;;;;;;4185508;28;20511;-90
2022/07/08 09:54:09;;;;;;;5.57;1.20;;;20.40;98.90;;;;;;4194588;28;20037;-93
2022/07/08 09:56:25;;;;;;;9.23;1.10;;;20.50;98.20;;;;;;4196121;28;20047;-91
2022/07/08 09:58:29;;;;;;;5.38;0.90;;;20.50;98.40;;;;;;4177112;28;20087;-89
2022/07/08 10:00:30;;;;;;;6.00;1.13;;;20.60;98.70;;;;;;4231390;28;20035;-87
2022/07/08 10:02:31;;;;;;;7.03;1.58;;;20.70;98.70;;;;;;4191111;28;20055;-87
2022/07/08 10:04:42;;;;;;;7.80;1.63;;;20.70;98.50;;;;;;4230974;28;20440;-88
2022/07/08 10:06:43;;;;;;;2.55;0.85;;;20.60;97.40;;;;;;4209095;28;20052;-89
2022/07/08 10:08:45;;;;;;;11.77;1.73;;;20.50;98.30;;;;;;4212952;28;20049;-90
2022/07/08 10:10:56;;;;;;;5.90;1.65;;;20.50;98.30;;;;;;4186248;28;20041;-90
2022/07/08 10:12:58;;;;;;;6.15;1.77;;;20.60;98.20;;;;;;4194713;28;20057;-91
2022/07/08 10:15:02;;;;;;;9.90;1.90;;;20.70;98.20;;;;;;4178281;28;20108;-90
2022/07/08 10:17:07;;;;;;;3.45;1.00;;;20.80;97.80;;;;;;4226066;28;20043;-90
2022/07/08 10:19:22;;;;;;;4.30;1.00;;;20.90;97.60;;;;;;4177850;28;20049;-90
2022/07/08 10:21:26;;;;;;;4.75;0.95;;;21.00;97.80;;;;;;4185855;28;20045;-88
2022/07/08 10:23:36;;;;;;;9.18;1.55;;;21.20;97.60;;;;;;4202821;28;20051;-89
2022/07/08 10:25:38;;;;;;;5.80;1.63;;;21.20;97.20;;;;;;4186619;28;20052;-90
2022/07/08 10:27:39;;;;;;;6.45;1.95;;;21.20;97.20;;;;;;4181602;28;20555;-90
2022/07/08 10:29:40;;;;;;;6.53;1.10;;;21.30;97.00;;;;;;4187227;28;20084;-89
2022/07/08 10:31:52;;;;;;;7.07;1.58;;;21.40;97.10;;;;;;4173045;28;20053;-90
2022/07/08 10:34:00;;;;;;;2.97;1.20;;;21.50;96.90;;;;;;4185128;28;20045;-91
2022/07/08 10:36:04;;;;;;;5.47;1.00;;;21.60;96.30;;;;;;4172833;28;20040;-90
2022/07/08 10:38:05;;;;;;;4.90;1.35;;;21.50;95.20;;;;;;4191931;28;20041;-91